Time;durP1;ratioP1;P1;durP2;ratioP2;P2;SDS_P1;SDS_P2;PMS_P1;PMS_P2;Temp;Humidity;BMP_temperature;BMP_pressure;BME280_temperature;BME280_humidity;BME280_pressure;Samples;Min_cycle;Max_cycle;Signal;HPM_P1;HPM_P2
2021/03/21 00:00:37;;;;;;;0.80;0.30;;;3.60;59.30;;;;;;5038193;28;20053;-59
2021/03/21 00:03:05;;;;;;;2.63;0.75;;;3.50;59.10;;;;;;5028855;28;20064;-59
2021/03/21 00:05:33;;;;;;;2.92;0.93;;;3.40;59.00;;;;;;5041949;28;20049;-59
2021/03/21 00:08:02;;;;;;;2.78;0.82;;;3.40;58.90;;;;;;5039089;28;20394;-59
2021/03/21 00:10:35;;;;;;;2.15;0.82;;;3.40;58.60;;;;;;5043303;28;20088;-59
2021/03/21 00:13:05;;;;;;;1.58;0.82;;;3.40;59.30;;;;;;5039717;28;20057;-59
2021/03/21 00:15:33;;;;;;;0.77;0.35;;;3.30;59.30;;;;;;5030751;28;20056;-59
2021/03/21 00:18:00;;;;;;;2.30;0.70;;;3.30;59.40;;;;;;5036237;28;20221;-59
2021/03/21 00:20:32;;;;;;;2.05;0.70;;;3.30;59.20;;;;;;5036940;28;20041;-60
2021/03/21 00:23:00;;;;;;;5.10;2.10;;;3.20;59.00;;;;;;5034202;28;20041;-59
2021/03/21 00:25:37;;;;;;;0.30;0.20;;;3.20;59.40;;;;;;5035128;28;20060;-60
2021/03/21 00:28:06;;;;;;;0.52;0.43;;;3.20;58.70;;;;;;5040001;28;20053;-60
2021/03/21 00:30:37;;;;;;;1.20;0.73;;;3.20;58.50;;;;;;5040696;28;20048;-60
2021/03/21 00:33:05;;;;;;;;;;;3.20;59.30;;;;;;5054753;28;20049;-59
2021/03/21 00:35:33;;;;;;;0.75;0.32;;;3.20;60.20;;;;;;5040411;28;20231;-59
2021/03/21 00:38:04;;;;;;;1.88;0.70;;;3.20;60.10;;;;;;5041198;28;20363;-59
2021/03/21 00:40:33;;;;;;;0.85;0.28;;;3.30;59.40;;;;;;5041783;28;20065;-58
2021/03/21 00:43:00;;;;;;;1.52;0.68;;;3.30;59.30;;;;;;5029048;28;20053;-60
2021/03/21 00:45:37;;;;;;;3.10;0.82;;;3.20;57.90;;;;;;5041272;28;20116;-60
2021/03/21 00:48:09;;;;;;;3.15;0.68;;;3.20;58.20;;;;;;5039076;28;20060;-60
2021/03/21 00:50:36;;;;;;;1.58;0.73;;;3.20;58.40;;;;;;5040600;28;20075;-60
2021/03/21 00:53:08;;;;;;;1.58;0.63;;;3.20;59.00;;;;;;5030376;28;20091;-60
2021/03/21 00:55:36;;;;;;;1.58;0.43;;;3.20;59.00;;;;;;5039424;28;20049;-59
2021/03/21 00:58:03;;;;;;;2.03;0.45;;;3.20;59.40;;;;;;5039644;28;20371;-59
2021/03/21 01:00:34;;;;;;;3.17;0.80;;;3.20;59.40;;;;;;5036883;28;20348;-60
2021/03/21 01:03:10;;;;;;;0.68;0.40;;;3.20;59.40;;;;;;5040629;28;20056;-59
2021/03/21 01:05:39;;;;;;;1.58;0.98;;;3.20;59.30;;;;;;5017056;28;20049;-60
2021/03/21 01:08:15;;;;;;;3.00;0.98;;;3.20;59.10;;;;;;5038311;28;20288;-59
2021/03/21 01:10:43;;;;;;;1.55;0.80;;;3.20;58.80;;;;;;5036204;28;20072;-59
2021/03/21 01:13:13;;;;;;;2.53;0.70;;;3.20;58.10;;;;;;5038173;28;20053;-60
2021/03/21 01:15:42;;;;;;;9.63;1.67;;;3.20;58.00;;;;;;5039045;28;20049;-59
2021/03/21 01:18:17;;;;;;;1.75;0.90;;;3.20;58.00;;;;;;5037988;28;20042;-60
2021/03/21 01:20:49;;;;;;;2.08;0.85;;;3.30;58.30;;;;;;5037579;28;20240;-60
2021/03/21 01:23:18;;;;;;;2.70;1.13;;;3.30;58.40;;;;;;5036487;28;20125;-59
2021/03/21 01:25:48;;;;;;;1.50;0.93;;;3.30;58.20;;;;;;5036770;28;20068;-60
2021/03/21 01:28:23;;;;;;;3.25;1.20;;;3.30;57.60;;;;;;5038194;28;20053;-60
2021/03/21 01:30:51;;;;;;;3.20;1.33;;;3.40;57.40;;;;;;5042320;28;20056;-59
2021/03/21 01:33:18;;;;;;;2.67;0.63;;;3.40;57.90;;;;;;5053460;28;20411;-59
2021/03/21 01:35:47;;;;;;;2.13;0.90;;;3.30;58.00;;;;;;5038573;28;20041;-59
2021/03/21 01:38:14;;;;;;;2.35;0.80;;;3.30;58.30;;;;;;5037779;28;20041;-60
2021/03/21 01:40:43;;;;;;;1.92;0.63;;;3.30;57.70;;;;;;5053737;28;20037;-59
2021/03/21 01:43:12;;;;;;;3.80;1.33;;;3.30;58.00;;;;;;5038025;28;20048;-59
2021/03/21 01:45:43;;;;;;;3.42;1.30;;;3.30;57.80;;;;;;5038802;28;20060;-59
2021/03/21 01:48:19;;;;;;;5.25;1.48;;;3.40;57.90;;;;;;5036787;28;20632;-59
2021/03/21 01:50:51;;;;;;;3.42;1.23;;;3.40;57.50;;;;;;5039479;28;20064;-59
2021/03/21 01:53:21;;;;;;;3.97;1.92;;;3.40;57.40;;;;;;5037445;28;20866;-59
2021/03/21 01:55:49;;;;;;;6.13;1.90;;;3.40;57.70;;;;;;5042483;28;20240;-59
2021/03/21 01:58:18;;;;;;;2.90;1.38;;;3.40;58.40;;;;;;5038961;28;20041;-58
2021/03/21 02:00:46;;;;;;;2.53;0.95;;;3.40;58.70;;;;;;5034472;28;20053;-59
2021/03/21 02:03:17;;;;;;;2.65;1.02;;;3.30;59.40;;;;;;5034621;28;20040;-59
2021/03/21 02:05:49;;;;;;;3.53;1.00;;;3.40;59.80;;;;;;5034738;28;20061;-59
2021/03/21 02:08:31;;;;;;;4.38;1.25;;;3.30;59.80;;;;;;5034840;28;20041;-59
2021/03/21 02:11:05;;;;;;;2.40;0.90;;;3.30;59.70;;;;;;5032302;28;20338;-59
2021/03/21 02:13:45;;;;;;;2.85;1.17;;;3.30;60.00;;;;;;5035750;28;20056;-58
2021/03/21 02:16:21;;;;;;;4.78;1.13;;;3.20;60.70;;;;;;5036092;28;20345;-59
2021/03/21 02:18:57;;;;;;;3.03;1.95;;;3.20;60.30;;;;;;5035269;28;20124;-58
2021/03/21 02:21:35;;;;;;;2.63;0.98;;;3.20;60.70;;;;;;5038810;28;20726;-58
2021/03/21 02:24:33;;;;;;;5.80;1.50;;;3.20;60.70;;;;;;5037373;28;20184;-59
2021/03/21 02:27:38;;;;;;;4.70;1.23;;;3.20;59.50;;;;;;5035560;28;20236;-58
2021/03/21 02:30:10;;;;;;;4.57;1.08;;;3.30;58.70;;;;;;5035771;28;20284;-59
2021/03/21 02:32:43;;;;;;;4.15;1.15;;;3.30;58.10;;;;;;5035297;28;20069;-59
2021/03/21 02:35:18;;;;;;;2.42;1.25;;;3.30;58.40;;;;;;5034566;28;20049;-59
2021/03/21 02:37:51;;;;;;;3.42;1.60;;;3.50;55.90;;;;;;5032589;28;20397;-59
2021/03/21 02:40:26;;;;;;;5.13;1.95;;;3.50;55.00;;;;;;5033769;28;20348;-59
2021/03/21 02:43:05;;;;;;;3.08;1.70;;;3.50;53.70;;;;;;5037704;28;20060;-59
2021/03/21 02:45:42;;;;;;;4.97;1.80;;;3.70;53.80;;;;;;5035701;28;20103;-59
2021/03/21 02:48:14;;;;;;;4.13;1.50;;;3.70;52.90;;;;;;5035926;28;20076;-58
2021/03/21 02:50:47;;;;;;;3.90;1.85;;;3.70;53.20;;;;;;5028556;28;20119;-59
2021/03/21 02:53:19;;;;;;;4.20;1.90;;;3.70;53.20;;;;;;5037731;28;20099;-59
2021/03/21 02:55:50;;;;;;;3.38;1.45;;;3.70;53.00;;;;;;5037409;28;20366;-58
2021/03/21 02:58:21;;;;;;;3.08;1.27;;;3.70;53.50;;;;;;5036986;28;20044;-59
2021/03/21 03:00:53;;;;;;;3.15;1.40;;;3.60;53.30;;;;;;5033340;28;20060;-59
2021/03/21 03:03:22;;;;;;;3.25;1.67;;;3.50;53.80;;;;;;5038232;28;20342;-60
2021/03/21 03:05:52;;;;;;;5.72;1.77;;;3.50;55.50;;;;;;5038018;28;20045;-59
2021/03/21 03:08:24;;;;;;;3.42;1.25;;;3.40;57.90;;;;;;5036022;28;20596;-59
2021/03/21 03:10:55;;;;;;;3.03;1.30;;;3.30;59.00;;;;;;5035789;28;20091;-59
2021/03/21 03:13:23;;;;;;;;;;;3.20;59.20;;;;;;5035988;28;20304;-60
2021/03/21 03:15:58;;;;;;;1.40;0.68;;;3.20;60.40;;;;;;5037024;28;19917;-59
2021/03/21 03:18:37;;;;;;;6.60;1.67;;;3.10;60.90;;;;;;5036104;28;20628;-59
2021/03/21 03:21:10;;;;;;;4.50;1.35;;;3.10;60.70;;;;;;5039409;28;20116;-59
2021/03/21 03:23:46;;;;;;;2.85;1.33;;;3.10;61.30;;;;;;5041091;28;20240;-59
2021/03/21 03:26:21;;;;;;;4.28;1.50;;;3.10;61.40;;;;;;5034441;28;20057;-59
2021/03/21 03:28:59;;;;;;;3.63;1.40;;;3.20;62.20;;;;;;5036017;28;20061;-58
2021/03/21 03:31:33;;;;;;;3.00;1.00;;;3.20;62.90;;;;;;5035079;28;20460;-59
2021/03/21 03:34:00;;;;;;;2.78;1.05;;;3.20;63.70;;;;;;5035266;28;20240;-59
2021/03/21 03:36:28;;;;;;;4.72;1.30;;;3.30;64.20;;;;;;5032517;28;20072;-59
2021/03/21 03:38:56;;;;;;;2.28;0.93;;;3.30;64.50;;;;;;5035120;28;20095;-59
2021/03/21 03:41:34;;;;;;;2.50;1.25;;;3.30;64.50;;;;;;5041684;28;20046;-58
2021/03/21 03:44:24;;;;;;;2.60;1.20;;;3.40;64.10;;;;;;5040421;28;20100;-58
2021/03/21 03:46:59;;;;;;;3.50;0.95;;;3.40;63.80;;;;;;5054070;28;20057;-59
2021/03/21 03:49:40;;;;;;;5.18;1.48;;;3.40;63.00;;;;;;5035020;28;20993;-59
2021/03/21 03:52:27;;;;;;;5.40;1.45;;;3.30;63.50;;;;;;5031680;28;20053;-59
2021/03/21 03:55:01;;;;;;;2.30;1.10;;;3.40;63.40;;;;;;5039762;28;20098;-59
2021/03/21 03:57:34;;;;;;;4.53;1.35;;;3.50;63.60;;;;;;5054555;28;20045;-59
2021/03/21 04:00:18;;;;;;;2.20;1.00;;;3.60;63.10;;;;;;5058269;28;20284;-59
2021/03/21 04:02:57;;;;;;;3.65;1.80;;;3.60;62.90;;;;;;5043139;28;20368;-60
2021/03/21 04:05:31;;;;;;;4.20;1.25;;;3.60;63.30;;;;;;5041225;28;20869;-58
2021/03/21 04:08:05;;;;;;;4.10;1.92;;;3.60;63.60;;;;;;5042791;28;20045;-59
2021/03/21 04:10:37;;;;;;;3.22;1.20;;;3.70;63.40;;;;;;5037602;28;20048;-58
2021/03/21 04:13:11;;;;;;;5.47;1.63;;;3.70;63.20;;;;;;5026648;28;20049;-59
2021/03/21 04:15:43;;;;;;;4.50;1.45;;;3.70;63.60;;;;;;5043361;28;20300;-58
2021/03/21 04:18:15;;;;;;;4.22;1.77;;;3.70;64.20;;;;;;5036541;28;20050;-59
2021/03/21 04:20:47;;;;;;;5.53;1.52;;;3.70;64.20;;;;;;5035429;28;20057;-59
2021/03/21 04:23:19;;;;;;;3.25;1.42;;;3.70;64.30;;;;;;5035066;28;20037;-59
2021/03/21 04:25:52;;;;;;;6.88;2.15;;;3.70;63.80;;;;;;5040276;28;20283;-59
2021/03/21 04:28:22;;;;;;;7.53;2.15;;;3.70;64.20;;;;;;5036986;28;20429;-59
2021/03/21 04:30:54;;;;;;;8.10;1.73;;;3.70;63.80;;;;;;5037920;28;20057;-59
2021/03/21 04:33:29;;;;;;;4.45;2.30;;;3.70;63.90;;;;;;5040323;28;20510;-59
2021/03/21 04:35:59;;;;;;;4.53;1.77;;;3.70;63.40;;;;;;5037153;28;20083;-59
2021/03/21 04:38:31;;;;;;;6.15;2.70;;;3.70;63.20;;;;;;5038456;28;20053;-59
2021/03/21 04:41:00;;;;;;;5.35;2.20;;;3.70;63.70;;;;;;5038916;28;20079;-61
2021/03/21 04:43:33;;;;;;;9.57;2.67;;;3.70;62.60;;;;;;5037061;28;20068;-59
2021/03/21 04:46:05;;;;;;;4.60;1.83;;;3.70;62.00;;;;;;5039624;28;20057;-59
2021/03/21 04:48:34;;;;;;;3.63;1.98;;;3.70;63.00;;;;;;5042495;28;20060;-59
2021/03/21 04:51:04;;;;;;;3.20;1.80;;;3.70;62.10;;;;;;5038996;28;20050;-60
2021/03/21 04:53:41;;;;;;;4.95;2.33;;;3.80;60.40;;;;;;5042232;28;20340;-59
2021/03/21 04:56:16;;;;;;;4.55;2.83;;;3.80;60.60;;;;;;5026750;28;20095;-60
2021/03/21 04:58:47;;;;;;;13.80;3.42;;;3.80;60.20;;;;;;5027172;28;20279;-59
2021/03/21 05:01:20;;;;;;;7.40;2.45;;;3.80;60.50;;;;;;5028044;28;20053;-59
2021/03/21 05:03:56;;;;;;;4.93;2.17;;;3.90;60.00;;;;;;5037705;28;20136;-59
2021/03/21 05:06:39;;;;;;;6.45;2.70;;;3.90;60.20;;;;;;5037748;28;20404;-60
2021/03/21 05:09:12;;;;;;;6.43;3.05;;;3.90;60.40;;;;;;5038713;28;20120;-59
2021/03/21 05:11:41;;;;;;;8.15;2.42;;;3.80;60.50;;;;;;5044165;28;20049;-59
2021/03/21 05:14:21;;;;;;;6.28;2.95;;;3.90;61.00;;;;;;5043446;28;20049;-59
2021/03/21 05:16:59;;;;;;;5.15;2.03;;;3.90;60.80;;;;;;5059022;28;20214;-60
2021/03/21 05:19:37;;;;;;;4.82;2.10;;;3.90;60.40;;;;;;5043545;28;20543;-59
2021/03/21 05:22:13;;;;;;;5.68;2.78;;;3.90;60.20;;;;;;5041309;28;20048;-60
2021/03/21 05:24:43;;;;;;;4.93;1.85;;;4.00;60.00;;;;;;5036852;28;20058;-60
2021/03/21 05:27:15;;;;;;;6.65;2.30;;;3.90;60.20;;;;;;5030505;28;21538;-59
2021/03/21 05:29:52;;;;;;;6.78;3.15;;;4.00;59.80;;;;;;5023823;28;20398;-58
2021/03/21 05:32:21;;;;;;;5.95;2.17;;;4.00;59.60;;;;;;5026725;28;20300;-60
2021/03/21 05:34:52;;;;;;;7.18;2.50;;;4.10;59.90;;;;;;5039347;28;20057;-59
2021/03/21 05:37:37;;;;;;;4.32;1.77;;;4.20;59.80;;;;;;5039762;28;20166;-59
2021/03/21 05:40:31;;;;;;;5.22;2.40;;;4.00;60.30;;;;;;5034637;28;20283;-59
2021/03/21 05:43:32;;;;;;;5.00;2.45;;;4.00;61.30;;;;;;5028431;28;20041;-59
2021/03/21 05:46:31;;;;;;;8.82;2.20;;;3.80;62.80;;;;;;5037441;28;20111;-60
2021/03/21 05:49:29;;;;;;;7.13;2.33;;;3.80;64.40;;;;;;5032042;28;20099;-60
2021/03/21 05:52:22;;;;;;;5.97;2.08;;;3.90;64.50;;;;;;5032979;28;20056;-59
2021/03/21 05:55:13;;;;;;;5.65;2.88;;;3.80;64.80;;;;;;5033087;28;20046;-59
2021/03/21 05:58:19;;;;;;;5.55;2.55;;;3.70;65.00;;;;;;5038734;28;20415;-59
2021/03/21 06:01:17;;;;;;;3.38;1.67;;;3.80;64.80;;;;;;5034882;28;20302;-60
2021/03/21 06:04:17;;;;;;;6.63;2.03;;;3.80;64.90;;;;;;5032034;28;20590;-59
2021/03/21 06:07:21;;;;;;;5.75;2.33;;;3.80;65.70;;;;;;5036074;28;20407;-60
2021/03/21 06:10:04;;;;;;;6.88;2.45;;;3.80;65.70;;;;;;5037936;28;20469;-60
2021/03/21 06:12:42;;;;;;;8.95;2.83;;;3.90;65.80;;;;;;5036769;28;20050;-60
2021/03/21 06:15:53;;;;;;;6.65;2.60;;;3.90;65.60;;;;;;5033762;28;20060;-60
2021/03/21 06:18:26;;;;;;;;;;;3.80;66.20;;;;;;5033670;28;20811;-59
2021/03/21 06:21:17;;;;;;;7.30;3.25;;;3.90;66.20;;;;;;5029734;28;20208;-59
2021/03/21 06:24:19;;;;;;;5.53;2.65;;;3.90;66.20;;;;;;5034023;28;20347;-59
2021/03/21 06:26:55;;;;;;;6.75;2.55;;;3.90;67.20;;;;;;5034531;28;21286;-60
2021/03/21 06:29:57;;;;;;;7.60;2.53;;;3.80;67.50;;;;;;5040913;28;20584;-60
2021/03/21 06:32:48;;;;;;;;;;;3.90;68.40;;;;;;5038413;28;20497;-60
2021/03/21 06:35:40;;;;;;;5.53;2.47;;;3.90;68.40;;;;;;5048831;28;19925;-59
2021/03/21 06:38:42;;;;;;;8.40;3.83;;;3.90;69.40;;;;;;5031737;28;20056;-60
2021/03/21 06:41:27;;;;;;;7.05;3.00;;;4.00;69.20;;;;;;5035456;28;20325;-59
2021/03/21 06:44:15;;;;;;;9.95;3.88;;;3.90;70.80;;;;;;5038195;28;20069;-60
2021/03/21 06:47:12;;;;;;;4.60;2.50;;;3.80;72.40;;;;;;5035617;28;20072;-60
2021/03/21 06:49:52;;;;;;;6.18;2.60;;;3.80;73.00;;;;;;5022533;28;20551;-60
2021/03/21 06:52:28;;;;;;;7.63;3.42;;;3.80;73.40;;;;;;5036997;28;20606;-59
2021/03/21 06:55:01;;;;;;;9.57;3.65;;;3.90;74.00;;;;;;5032714;28;20057;-59
2021/03/21 06:58:08;;;;;;;8.95;3.97;;;4.00;74.30;;;;;;5029946;28;20125;-58
2021/03/21 07:00:58;;;;;;;9.07;3.15;;;4.00;75.10;;;;;;5030634;28;20219;-58
2021/03/21 07:04:10;;;;;;;9.55;4.03;;;3.90;75.70;;;;;;5040419;28;20063;-59
2021/03/21 07:07:14;;;;;;;8.63;3.78;;;3.80;77.30;;;;;;5040505;28;20677;-60
2021/03/21 07:10:35;;;;;;;7.38;3.55;;;3.70;78.40;;;;;;5018784;28;21067;-59
2021/03/21 07:13:40;;;;;;;10.85;4.00;;;3.60;79.40;;;;;;5040450;28;20480;-59
2021/03/21 07:16:51;;;;;;;9.43;4.40;;;3.60;79.10;;;;;;5041029;28;20080;-59
2021/03/21 07:19:50;;;;;;;8.60;4.05;;;3.60;79.70;;;;;;4985397;28;20567;-59
2021/03/21 07:22:53;;;;;;;11.32;4.13;;;3.40;80.80;;;;;;5040448;28;20064;-59
2021/03/21 07:25:53;;;;;;;9.15;4.45;;;3.40;81.40;;;;;;5038383;28;20471;-59
2021/03/21 07:28:44;;;;;;;9.35;3.97;;;3.30;82.00;;;;;;5054053;28;20538;-59
2021/03/21 07:31:29;;;;;;;11.02;4.32;;;3.30;82.20;;;;;;5033064;28;20043;-59
2021/03/21 07:34:15;;;;;;;10.80;4.47;;;3.40;82.00;;;;;;5041681;28;20249;-60
2021/03/21 07:36:49;;;;;;;9.45;4.72;;;3.50;82.60;;;;;;5043639;28;20083;-59
2021/03/21 07:39:39;;;;;;;8.10;4.47;;;3.50;83.20;;;;;;5041171;28;20049;-58
2021/03/21 07:42:23;;;;;;;13.65;5.47;;;3.60;83.10;;;;;;5057024;28;20034;-59
2021/03/21 07:45:10;;;;;;;11.85;4.43;;;3.60;83.60;;;;;;5043348;28;20046;-59
2021/03/21 07:47:49;;;;;;;11.20;4.50;;;3.70;83.10;;;;;;5041854;28;20740;-60
2021/03/21 07:50:40;;;;;;;19.70;5.57;;;3.70;83.20;;;;;;5042663;28;20053;-59
2021/03/21 07:53:19;;;;;;;14.82;6.43;;;3.80;83.70;;;;;;5042982;28;20053;-59
2021/03/21 07:55:53;;;;;;;10.90;5.43;;;3.90;83.60;;;;;;5043070;28;20057;-59
2021/03/21 07:58:30;;;;;;;11.68;5.68;;;3.80;83.50;;;;;;5040283;28;20279;-59
2021/03/21 08:00:58;;;;;;;12.38;5.15;;;3.80;83.80;;;;;;5034284;28;20049;-59
2021/03/21 08:03:34;;;;;;;16.60;5.82;;;3.80;84.20;;;;;;5039273;28;20056;-60
2021/03/21 08:06:02;;;;;;;12.80;5.95;;;3.90;84.60;;;;;;5039409;28;20061;-60
2021/03/21 08:08:32;;;;;;;14.82;6.53;;;3.90;84.40;;;;;;5042702;28;20324;-59
2021/03/21 08:11:02;;;;;;;10.95;5.60;;;3.90;84.70;;;;;;5040781;28;20120;-59
2021/03/21 08:13:39;;;;;;;12.53;6.00;;;3.90;84.30;;;;;;5043697;28;20041;-60
2021/03/21 08:16:11;;;;;;;12.70;5.97;;;4.00;84.20;;;;;;5042663;28;20331;-59
2021/03/21 08:18:40;;;;;;;11.55;5.85;;;4.00;84.70;;;;;;5044433;28;20080;-59
2021/03/21 08:21:15;;;;;;;14.80;6.47;;;4.20;84.00;;;;;;5044333;28;20057;-59
2021/03/21 08:23:43;;;;;;;12.40;6.22;;;4.20;83.90;;;;;;5044579;28;20049;-60
2021/03/21 08:26:12;;;;;;;15.93;8.20;;;4.30;83.50;;;;;;5030542;28;20118;-59
2021/03/21 08:29:03;;;;;;;12.25;5.60;;;4.20;84.10;;;;;;5030573;28;20060;-59
2021/03/21 08:31:34;;;;;;;14.52;5.80;;;4.40;83.90;;;;;;5031658;28;20467;-60
2021/03/21 08:34:35;;;;;;;12.32;5.55;;;4.40;83.80;;;;;;5034863;28;20072;-59
2021/03/21 08:37:19;;;;;;;11.15;5.55;;;4.60;83.70;;;;;;5032064;28;20364;-59
2021/03/21 08:39:48;;;;;;;13.63;6.53;;;4.60;83.60;;;;;;5033471;28;20290;-59
2021/03/21 08:42:37;;;;;;;15.15;7.13;;;4.60;83.90;;;;;;5034616;28;20065;-59
2021/03/21 08:45:20;;;;;;;14.23;6.40;;;4.70;83.90;;;;;;5035436;28;20240;-60
2021/03/21 08:47:56;;;;;;;17.15;7.60;;;4.80;84.00;;;;;;5038425;28;20045;-60
2021/03/21 08:50:37;;;;;;;15.95;6.80;;;5.00;83.20;;;;;;5034487;28;20722;-59
2021/03/21 08:53:22;;;;;;;16.98;6.60;;;4.90;83.50;;;;;;5032838;28;20053;-59
2021/03/21 08:55:49;;;;;;;15.38;7.57;;;4.70;84.70;;;;;;5029557;28;20344;-59
2021/03/21 08:58:29;;;;;;;12.77;6.57;;;4.80;84.20;;;;;;5032093;28;20973;-60
2021/03/21 09:01:10;;;;;;;13.25;6.28;;;4.90;84.30;;;;;;5030720;28;20300;-60
2021/03/21 09:03:38;;;;;;;14.20;6.47;;;5.00;83.90;;;;;;5032265;28;20072;-60
2021/03/21 09:06:05;;;;;;;11.10;6.10;;;5.00;83.90;;;;;;5034990;28;20060;-60
2021/03/21 09:08:34;;;;;;;13.15;6.55;;;5.10;83.60;;;;;;5033305;28;20288;-59
2021/03/21 09:11:03;;;;;;;13.77;7.60;;;5.10;83.00;;;;;;5035423;28;20229;-59
2021/03/21 09:13:32;;;;;;;15.38;7.40;;;5.10;83.30;;;;;;5035502;28;20075;-60
2021/03/21 09:16:09;;;;;;;15.63;7.03;;;5.20;83.20;;;;;;5032093;28;20053;-60
2021/03/21 09:18:38;;;;;;;12.13;6.07;;;5.00;83.30;;;;;;5028248;28;20073;-60
2021/03/21 09:21:21;;;;;;;16.15;7.82;;;5.00;84.00;;;;;;5034137;28;20056;-60
2021/03/21 09:24:09;;;;;;;15.70;6.22;;;5.10;84.40;;;;;;5033734;28;20053;-60
2021/03/21 09:26:40;;;;;;;13.50;6.55;;;5.30;82.80;;;;;;5032465;28;21185;-60
2021/03/21 09:29:19;;;;;;;15.30;6.88;;;5.20;83.10;;;;;;5030816;28;20044;-59
2021/03/21 09:31:49;;;;;;;14.95;6.95;;;5.10;83.70;;;;;;5043802;28;20112;-58
2021/03/21 09:34:23;;;;;;;15.02;6.55;;;5.20;83.30;;;;;;5034377;28;20080;-59
2021/03/21 09:36:56;;;;;;;12.88;7.00;;;5.20;83.60;;;;;;5032909;28;20061;-58
2021/03/21 09:39:26;;;;;;;15.50;7.15;;;5.30;83.30;;;;;;5032994;28;20147;-58
2021/03/21 09:41:54;;;;;;;14.75;6.45;;;5.40;83.60;;;;;;5051247;28;20057;-59
2021/03/21 09:44:36;;;;;;;13.20;7.65;;;5.30;83.50;;;;;;5035119;28;20279;-59
2021/03/21 09:47:24;;;;;;;13.10;6.53;;;5.40;83.40;;;;;;5035901;28;20057;-59
2021/03/21 09:49:58;;;;;;;14.90;6.43;;;5.50;83.20;;;;;;5034619;28;20423;-59
2021/03/21 09:52:40;;;;;;;15.77;6.47;;;5.50;82.90;;;;;;5032876;28;20099;-59
2021/03/21 09:55:22;;;;;;;15.43;7.05;;;5.50;83.00;;;;;;5036084;28;20148;-59
2021/03/21 09:58:26;;;;;;;13.82;6.88;;;5.40;83.30;;;;;;5033562;28;20069;-59
2021/03/21 10:00:59;;;;;;;13.95;6.90;;;5.70;83.20;;;;;;5031815;28;20388;-59
2021/03/21 10:03:32;;;;;;;14.55;6.30;;;5.60;83.10;;;;;;5039542;28;20372;-59
2021/03/21 10:06:05;;;;;;;12.00;5.78;;;5.60;83.30;;;;;;5035448;28;20092;-59
2021/03/21 10:08:49;;;;;;;13.25;6.00;;;5.70;82.80;;;;;;5036637;28;20060;-59
2021/03/21 10:11:26;;;;;;;10.32;6.20;;;5.90;82.60;;;;;;5035703;28;20051;-58
2021/03/21 10:13:54;;;;;;;12.23;5.97;;;6.10;81.70;;;;;;5036438;28;20411;-58
2021/03/21 10:16:34;;;;;;;10.57;5.18;;;6.30;81.20;;;;;;5035360;28;20405;-59
2021/03/21 10:19:05;;;;;;;14.88;6.57;;;6.40;81.10;;;;;;5035630;28;20202;-59
2021/03/21 10:21:35;;;;;;;13.18;6.22;;;6.70;80.70;;;;;;5036702;28;20103;-60
2021/03/21 10:24:21;;;;;;;13.55;6.28;;;6.90;79.50;;;;;;5035037;28;20049;-59
2021/03/21 10:27:27;;;;;;;14.57;6.18;;;6.80;79.90;;;;;;5030462;28;20037;-59
2021/03/21 10:30:33;;;;;;;11.88;5.45;;;7.00;79.40;;;;;;5035123;28;20240;-60
2021/03/21 10:33:45;;;;;;;13.02;4.88;;;6.90;79.70;;;;;;5050809;28;20052;-59
2021/03/21 10:36:46;;;;;;;10.35;4.82;;;7.20;78.80;;;;;;5039110;28;23159;-60
2021/03/21 10:39:51;;;;;;;11.65;5.82;;;6.90;79.80;;;;;;5028007;28;20049;-60
2021/03/21 10:42:38;;;;;;;10.18;4.57;;;6.80;80.10;;;;;;5050237;28;20348;-60
2021/03/21 10:45:09;;;;;;;10.68;5.05;;;6.80;80.30;;;;;;5035790;28;20363;-60
2021/03/21 10:47:55;;;;;;;10.82;4.75;;;6.90;79.90;;;;;;5035717;28;20053;-60
2021/03/21 10:50:55;;;;;;;10.65;4.82;;;7.20;80.00;;;;;;5035647;28;20804;-59
2021/03/21 10:53:38;;;;;;;9.50;4.45;;;7.50;79.30;;;;;;5034094;28;20487;-59
2021/03/21 10:56:12;;;;;;;13.27;4.38;;;7.80;78.10;;;;;;5028478;28;20041;-59
2021/03/21 10:58:48;;;;;;;9.77;4.35;;;8.10;76.40;;;;;;5035816;28;20115;-60
2021/03/21 11:01:28;;;;;;;9.90;4.32;;;8.50;76.30;;;;;;5028963;28;20094;-60
2021/03/21 11:04:21;;;;;;;10.23;4.60;;;8.60;74.50;;;;;;5033634;28;20403;-59
2021/03/21 11:06:52;;;;;;;8.65;3.65;;;8.60;75.10;;;;;;5034360;28;20049;-59
2021/03/21 11:09:21;;;;;;;8.63;3.50;;;8.60;74.90;;;;;;5052207;28;20224;-59
2021/03/21 11:11:50;;;;;;;10.90;4.03;;;8.40;75.30;;;;;;5038738;28;20419;-62
2021/03/21 11:14:21;;;;;;;6.50;2.90;;;8.60;75.00;;;;;;5038618;28;20045;-59
2021/03/21 11:16:53;;;;;;;7.10;2.75;;;9.30;72.60;;;;;;5038501;28;20128;-59
2021/03/21 11:19:23;;;;;;;4.40;1.67;;;9.30;70.70;;;;;;5036927;28;20569;-59
2021/03/21 11:21:50;;;;;;;5.15;2.58;;;9.40;69.10;;;;;;5038548;28;20041;-60
2021/03/21 11:24:27;;;;;;;3.03;1.50;;;9.80;68.90;;;;;;5037240;28;20278;-60
2021/03/21 11:26:55;;;;;;;2.15;0.70;;;9.90;66.80;;;;;;5037409;28;20052;-59
2021/03/21 11:29:33;;;;;;;;;;;10.10;63.60;;;;;;5038817;28;20099;-60
2021/03/21 11:32:16;;;;;;;1.73;0.60;;;10.10;63.20;;;;;;5028504;28;20220;-59
2021/03/21 11:34:44;;;;;;;1.08;0.30;;;10.20;59.70;;;;;;5037580;28;20102;-60
2021/03/21 11:37:15;;;;;;;0.85;0.45;;;10.90;57.30;;;;;;5039003;28;20045;-60
2021/03/21 11:39:47;;;;;;;0.57;0.32;;;11.30;55.10;;;;;;5035328;28;20076;-60
2021/03/21 11:42:26;;;;;;;0.93;0.30;;;11.20;54.10;;;;;;5037607;28;20045;-60
2021/03/21 11:45:13;;;;;;;0.52;0.28;;;11.30;53.20;;;;;;5038574;28;20256;-59
2021/03/21 11:47:41;;;;;;;0.73;0.30;;;11.50;52.80;;;;;;5038068;28;20259;-59
2021/03/21 11:50:18;;;;;;;2.65;0.60;;;11.40;52.10;;;;;;5054322;28;20041;-59
2021/03/21 11:52:46;;;;;;;1.58;0.50;;;11.30;52.90;;;;;;5039410;28;20037;-59
2021/03/21 11:55:18;;;;;;;0.80;0.40;;;11.70;51.60;;;;;;5039687;28;20072;-59
2021/03/21 11:58:03;;;;;;;0.85;0.30;;;11.40;52.90;;;;;;5039398;28;20045;-59
2021/03/21 12:00:32;;;;;;;1.95;0.50;;;11.10;53.00;;;;;;5038104;28;20498;-59
2021/03/21 12:03:06;;;;;;;3.65;1.38;;;11.20;52.00;;;;;;5038896;28;20053;-59
2021/03/21 12:05:37;;;;;;;1.17;0.82;;;11.30;53.50;;;;;;5039826;28;20057;-59
2021/03/21 12:08:20;;;;;;;0.82;0.57;;;11.50;52.70;;;;;;5040580;28;20057;-59
2021/03/21 12:10:47;;;;;;;3.80;0.70;;;11.40;51.40;;;;;;5041263;28;20045;-59
2021/03/21 12:13:39;;;;;;;1.13;0.50;;;11.40;51.90;;;;;;5036731;28;20056;-59
2021/03/21 12:16:27;;;;;;;1.73;0.60;;;12.00;50.50;;;;;;5038336;28;20279;-60
2021/03/21 12:18:56;;;;;;;1.08;0.40;;;11.60;51.60;;;;;;5039379;28;20053;-60
2021/03/21 12:21:25;;;;;;;2.15;0.77;;;11.40;51.00;;;;;;5038680;28;20385;-60
2021/03/21 12:24:03;;;;;;;2.63;0.90;;;11.90;50.30;;;;;;5037851;28;20049;-60
2021/03/21 12:26:50;;;;;;;1.30;0.60;;;13.00;48.50;;;;;;5036603;28;20443;-60
2021/03/21 12:29:33;;;;;;;2.70;0.75;;;13.70;46.40;;;;;;5039014;28;20049;-60
2021/03/21 12:32:36;;;;;;;2.95;0.80;;;13.70;44.00;;;;;;5039387;28;20041;-60
2021/03/21 12:35:13;;;;;;;2.45;0.63;;;13.30;44.30;;;;;;5029572;28;20083;-60
2021/03/21 12:37:50;;;;;;;1.60;0.52;;;13.10;45.00;;;;;;5039734;28;20286;-59
2021/03/21 12:40:28;;;;;;;3.97;0.50;;;12.80;44.90;;;;;;5036883;28;20120;-59
2021/03/21 12:42:55;;;;;;;2.00;0.77;;;12.60;45.70;;;;;;5039633;28;20194;-59
2021/03/21 12:45:24;;;;;;;2.25;0.80;;;12.50;46.10;;;;;;5039851;28;20396;-59
2021/03/21 12:48:02;;;;;;;2.35;0.40;;;12.60;46.30;;;;;;5053980;28;20120;-59
2021/03/21 12:50:48;;;;;;;6.20;1.63;;;12.40;45.70;;;;;;5037843;28;20144;-60
2021/03/21 12:53:24;;;;;;;1.98;0.40;;;12.20;46.00;;;;;;5051932;28;20095;-59
2021/03/21 12:55:55;;;;;;;1.27;0.28;;;12.20;46.00;;;;;;5036597;28;20371;-60
2021/03/21 12:58:23;;;;;;;2.83;0.45;;;12.20;45.30;;;;;;5037410;28;20068;-60
2021/03/21 13:00:51;;;;;;;1.98;0.22;;;12.40;46.10;;;;;;5035095;28;20058;-59
2021/03/21 13:03:32;;;;;;;2.40;0.47;;;12.60;45.00;;;;;;5036255;28;20378;-59
2021/03/21 13:06:03;;;;;;;2.10;0.38;;;12.30;45.30;;;;;;5033868;28;20359;-60
2021/03/21 13:08:31;;;;;;;4.55;0.85;;;12.40;45.30;;;;;;5037273;28;20057;-60
2021/03/21 13:10:59;;;;;;;5.05;0.50;;;13.50;42.80;;;;;;5038118;28;20073;-60
2021/03/21 13:13:27;;;;;;;5.47;0.57;;;13.70;41.70;;;;;;5050225;28;20053;-60
2021/03/21 13:15:55;;;;;;;2.83;0.80;;;13.20;42.50;;;;;;5035997;28;20060;-59
2021/03/21 13:18:22;;;;;;;4.10;1.42;;;12.60;43.00;;;;;;5036814;28;20052;-59
2021/03/21 13:21:02;;;;;;;3.00;0.70;;;12.10;44.00;;;;;;5035821;28;20392;-60
2021/03/21 13:23:30;;;;;;;2.83;0.98;;;12.10;44.60;;;;;;5037581;28;20053;-60
2021/03/21 13:25:57;;;;;;;7.57;1.20;;;11.80;45.20;;;;;;5035763;28;20041;-60
2021/03/21 13:28:24;;;;;;;3.47;1.65;;;11.80;45.30;;;;;;5037985;28;20096;-60
2021/03/21 13:30:52;;;;;;;6.20;0.82;;;11.80;45.70;;;;;;5035767;28;20049;-60
2021/03/21 13:33:24;;;;;;;3.67;0.60;;;11.80;46.30;;;;;;5036415;28;20282;-60
2021/03/21 13:35:55;;;;;;;5.55;1.10;;;11.80;46.10;;;;;;5036429;28;20053;-59
2021/03/21 13:38:24;;;;;;;4.93;1.52;;;11.90;46.50;;;;;;5032634;28;20705;-59
2021/03/21 13:40:53;;;;;;;7.60;0.93;;;12.00;47.00;;;;;;5038346;28;20041;-60
2021/03/21 13:43:22;;;;;;;4.45;1.42;;;11.90;46.40;;;;;;5036796;28;20521;-60
2021/03/21 13:45:51;;;;;;;4.50;1.02;;;12.70;42.80;;;;;;5040626;28;20221;-60